createdAt,value
2023-01-02T00:00:51.733Z,8.15
2023-01-02T00:05:53.471Z,7.93
2023-01-02T00:10:55.143Z,8.07
2023-01-02T00:15:56.904Z,8.48
2023-01-02T00:21:06.443Z,8.82
2023-01-02T00:26:08.300Z,8.68
2023-01-02T00:31:12.938Z,6.82
2023-01-02T00:36:14.757Z,7.53
2023-01-02T00:41:16.465Z,9.38
2023-01-02T00:46:18.839Z,9.27
2023-01-02T00:51:20.640Z,8.65
2023-01-02T00:56:22.370Z,8.13
2023-01-02T01:01:24.218Z,7.28
2023-01-02T01:06:26.014Z,7.47
2023-01-02T01:11:27.786Z,6.88
2023-01-02T01:16:30.125Z,5.82
2023-01-02T01:21:31.870Z,6.82
2023-01-02T01:26:33.575Z,7.50
2023-01-02T01:31:35.312Z,6.32
2023-01-02T01:36:37.248Z,5.55
2023-01-02T01:41:38.939Z,7.80
2023-01-02T01:46:44.934Z,6.90
2023-01-02T01:52:06.056Z,5.18
2023-01-02T01:57:22.280Z,5.13
2023-01-02T02:02:25.885Z,5.40
2023-01-02T02:07:28.772Z,6.15
2023-01-02T02:12:33.003Z,4.18
2023-01-02T02:18:24.439Z,4.35
2023-01-02T02:23:47.588Z,5.05
2023-01-02T02:29:21.057Z,6.10
2023-01-02T02:34:33.215Z,5.78
2023-01-02T02:39:42.903Z,6.13
2023-01-02T02:45:19.561Z,6.65
2023-01-02T02:50:26.647Z,3.85
2023-01-02T02:55:34.812Z,4.85
2023-01-02T03:00:36.579Z,3.72
2023-01-02T03:05:40.966Z,5.10
2023-01-02T03:11:12.681Z,4.70
2023-01-02T03:16:27.742Z,4.15
2023-01-02T03:21:33.605Z,5.05
2023-01-02T03:26:37.898Z,4.25
2023-01-02T03:31:42.266Z,6.13
2023-01-02T03:36:47.977Z,6.65
2023-01-02T03:42:04.917Z,5.68
2023-01-02T03:47:32.535Z,5.40
2023-01-02T03:52:34.265Z,3.70
2023-01-02T03:57:58.550Z,6.90
2023-01-02T04:03:20.661Z,6.43
2023-01-02T04:08:32.642Z,7.95
2023-01-02T04:13:39.427Z,4.15
2023-01-02T04:18:50.822Z,5.18
2023-01-02T04:23:58.135Z,7.93
2023-01-02T04:28:59.952Z,4.82
2023-01-02T04:34:03.704Z,4.63
2023-01-02T04:39:05.611Z,4.78
2023-01-02T04:44:07.509Z,4.63
2023-01-02T04:49:10.155Z,4.53
2023-01-02T04:54:12.176Z,5.78
2023-01-02T04:59:13.983Z,7.93
2023-01-02T05:04:15.767Z,3.78
2023-01-02T05:09:17.552Z,5.20
2023-01-02T05:14:19.282Z,5.13
2023-01-02T05:19:21.004Z,4.95
2023-01-02T05:24:22.684Z,5.40
2023-01-02T05:29:24.485Z,5.63
2023-01-02T05:34:26.190Z,6.28
2023-01-02T05:39:27.923Z,5.30
2023-01-02T05:44:29.629Z,6.20
2023-01-02T05:49:31.307Z,4.70
2023-01-02T05:54:33.008Z,4.57
2023-01-02T05:59:36.373Z,4.60
2023-01-02T06:04:38.223Z,6.65
2023-01-02T06:09:39.907Z,3.85
2023-01-02T06:14:41.576Z,7.88
2023-01-02T06:19:47.253Z,3.97
2023-01-02T06:24:51.995Z,4.35
2023-01-02T06:29:54.829Z,6.82
2023-01-02T06:34:56.540Z,4.75
2023-01-02T06:39:58.250Z,4.97
2023-01-02T06:44:59.960Z,3.72
2023-01-02T06:50:01.809Z,4.10
2023-01-02T06:55:03.723Z,4.90
2023-01-02T07:00:05.972Z,5.60
2023-01-02T07:05:07.892Z,5.75
2023-01-02T07:10:10.033Z,4.20
2023-01-02T07:15:11.943Z,3.70
2023-01-02T07:20:13.766Z,6.28
2023-01-02T07:25:15.537Z,7.25
2023-01-02T07:30:17.577Z,5.35
2023-01-02T07:35:19.310Z,7.47
2023-01-02T07:40:20.987Z,3.25
2023-01-02T07:45:22.690Z,6.70
2023-01-02T07:50:24.353Z,4.68
2023-01-02T07:55:26.072Z,7.18
2023-01-02T08:00:27.946Z,4.80
2023-01-02T08:05:29.664Z,4.20
2023-01-02T08:10:31.416Z,4.65
2023-01-02T08:15:34.173Z,4.90
2023-01-02T08:20:35.904Z,4.80
2023-01-02T08:25:37.583Z,3.67
2023-01-02T08:30:40.921Z,4.93
2023-01-02T08:35:42.685Z,5.55
2023-01-02T08:40:44.439Z,9.43
2023-01-02T08:45:46.234Z,10.57
2023-01-02T08:50:49.130Z,4.20
2023-01-02T08:55:50.873Z,5.50
2023-01-02T09:00:52.883Z,8.73
2023-01-02T09:05:55.301Z,6.63
2023-01-02T09:10:57.086Z,8.05
2023-01-02T09:15:58.830Z,5.35
2023-01-02T09:21:00.895Z,4.53
2023-01-02T09:26:04.881Z,8.23
2023-01-02T09:31:11.979Z,3.83
2023-01-02T09:36:18.543Z,6.25
2023-01-02T09:41:44.190Z,6.82
2023-01-02T09:47:06.036Z,6.00
2023-01-02T09:52:11.344Z,5.20
2023-01-02T09:57:28.169Z,7.90
2023-01-02T10:03:04.229Z,7.93
2023-01-02T10:08:14.836Z,9.30
2023-01-02T10:13:44.154Z,8.50
2023-01-02T10:18:55.037Z,6.03
2023-01-02T10:24:13.564Z,6.63
2023-01-02T10:29:35.352Z,5.70
2023-01-02T10:35:01.807Z,6.93
2023-01-02T10:40:04.588Z,6.13
2023-01-02T10:45:08.164Z,4.43
2023-01-02T10:50:25.455Z,6.20
2023-01-02T10:55:35.346Z,5.47
2023-01-02T11:00:37.294Z,4.05
2023-01-02T11:05:46.197Z,7.25
2023-01-02T11:10:48.950Z,8.30
2023-01-02T11:15:58.701Z,3.95
2023-01-02T11:21:06.889Z,2.95
2023-01-02T11:26:20.121Z,5.28
2023-01-02T11:31:22.980Z,4.57
2023-01-02T11:36:24.739Z,5.70
2023-01-02T11:41:56.394Z,9.57
2023-01-02T11:46:59.217Z,5.57
2023-01-02T11:52:04.924Z,5.95
2023-01-02T11:57:18.967Z,6.25
2023-01-02T12:02:26.953Z,6.88
2023-01-02T12:07:46.074Z,8.40
2023-01-02T12:12:53.624Z,5.88
2023-01-02T12:18:21.205Z,8.23
2023-01-02T12:23:44.943Z,4.43
2023-01-02T12:29:01.459Z,5.03
2023-01-02T12:34:28.295Z,5.28
2023-01-02T12:39:53.252Z,6.03
2023-01-02T12:44:57.193Z,5.28
2023-01-02T12:50:07.851Z,7.00
2023-01-02T12:55:44.599Z,5.57
2023-01-02T13:01:12.867Z,6.70
2023-01-02T13:06:44.745Z,7.57
2023-01-02T13:12:06.741Z,6.75
2023-01-02T13:17:29.818Z,9.20
2023-01-02T13:22:57.275Z,6.22
2023-01-02T13:28:00.300Z,5.93
2023-01-02T13:33:04.520Z,6.57
2023-01-02T13:38:10.973Z,8.88
2023-01-02T13:43:20.406Z,8.73
2023-01-02T13:48:27.943Z,6.90
2023-01-02T13:53:40.753Z,5.07
2023-01-02T13:59:42.583Z,6.43
2023-01-02T14:04:43.810Z,5.95
2023-01-02T14:10:14.979Z,6.43
2023-01-02T14:15:21.441Z,3.55
2023-01-02T14:20:32.377Z,6.53
2023-01-02T14:25:44.874Z,6.85
2023-01-02T14:30:48.615Z,6.55
2023-01-02T14:35:58.467Z,7.60
2023-01-02T14:41:18.732Z,5.78
2023-01-02T14:46:25.159Z,6.65
2023-01-02T14:51:32.647Z,6.88
2023-01-02T14:56:38.184Z,5.90
2023-01-02T15:01:44.552Z,5.97
2023-01-02T15:06:53.644Z,10.75
2023-01-02T15:12:17.305Z,6.65
2023-01-02T15:17:22.862Z,9.35
2023-01-02T15:22:30.442Z,4.45
2023-01-02T15:27:33.801Z,6.00
2023-01-02T15:32:35.987Z,4.95
2023-01-02T15:37:45.393Z,9.23
2023-01-02T15:43:07.382Z,7.32
2023-01-02T15:48:10.177Z,5.38
2023-01-02T15:53:29.985Z,5.40
2023-01-02T15:58:34.543Z,5.85
2023-01-02T16:04:01.479Z,5.18
2023-01-02T16:09:05.888Z,7.50
2023-01-02T16:14:20.151Z,7.85
2023-01-02T16:19:32.945Z,9.30
2023-01-02T16:24:40.207Z,4.55
2023-01-02T16:29:43.412Z,5.32
2023-01-02T16:34:45.134Z,6.35
2023-01-02T16:39:49.433Z,7.35
2023-01-02T16:44:55.340Z,7.43
2023-01-02T16:49:57.145Z,4.95
2023-01-02T16:54:58.978Z,4.57
2023-01-02T17:00:00.679Z,4.63
2023-01-02T17:05:07.547Z,6.28
2023-01-02T17:10:09.560Z,3.95
2023-01-02T17:15:14.446Z,7.10
2023-01-02T17:20:16.931Z,3.40
2023-01-02T17:25:18.831Z,3.60
2023-01-02T17:30:21.029Z,2.67
2023-01-02T17:35:22.797Z,2.70
2023-01-02T17:40:24.537Z,1.17
2023-01-02T17:45:26.519Z,0.98
2023-01-02T17:50:28.311Z,2.13
2023-01-02T17:55:30.081Z,1.88
2023-01-02T18:00:31.923Z,1.63
2023-01-02T18:05:35.795Z,1.45
2023-01-02T18:10:38.780Z,3.95
2023-01-02T18:15:40.522Z,0.82
2023-01-02T18:20:44.854Z,0.77
2023-01-02T18:25:46.672Z,1.85
2023-01-02T18:30:52.327Z,1.67
2023-01-02T18:36:00.598Z,1.83
2023-01-02T18:41:22.437Z,2.97
2023-01-02T18:47:03.571Z,1.65
2023-01-02T18:52:11.355Z,2.17
2023-01-02T18:57:20.194Z,3.22
2023-01-02T19:02:24.966Z,2.92
2023-01-02T19:07:32.468Z,2.50
2023-01-02T19:13:06.515Z,1.85
2023-01-02T19:18:15.475Z,1.40
2023-01-02T19:23:23.061Z,2.10
2023-01-02T19:28:30.963Z,1.75
2023-01-02T19:33:41.513Z,1.70
2023-01-02T19:38:44.638Z,2.05
2023-01-02T19:43:46.309Z,4.35
2023-01-02T19:48:48.015Z,2.85
2023-01-02T19:53:49.748Z,2.90
2023-01-02T19:58:51.484Z,2.83
2023-01-02T20:03:53.200Z,2.47
2023-01-02T20:08:54.931Z,2.50
2023-01-02T20:13:56.656Z,4.20
2023-01-02T20:18:58.460Z,5.22
2023-01-02T20:24:01.230Z,5.15
2023-01-02T20:29:04.154Z,4.45
2023-01-02T20:34:05.919Z,5.97
2023-01-02T20:39:08.804Z,5.22
2023-01-02T20:44:12.316Z,4.35
2023-01-02T20:49:13.994Z,3.67
2023-01-02T20:54:16.009Z,4.43
2023-01-02T20:59:17.780Z,4.50
2023-01-02T21:04:23.358Z,3.08
2023-01-02T21:09:29.819Z,3.65
2023-01-02T21:14:37.323Z,3.25
2023-01-02T21:19:39.324Z,3.72
2023-01-02T21:24:41.232Z,2.20
2023-01-02T21:29:43.022Z,1.63
2023-01-02T21:34:44.901Z,1.38
2023-01-02T21:39:48.236Z,1.63
2023-01-02T21:44:50.154Z,2.75
2023-01-02T21:49:52.923Z,1.90
2023-01-02T21:54:54.726Z,2.97
2023-01-02T21:59:56.542Z,1.95
2023-01-02T22:04:58.288Z,2.33
2023-01-02T22:10:00.050Z,1.15
2023-01-02T22:15:02.381Z,1.33
2023-01-02T22:20:04.354Z,1.38
2023-01-02T22:25:06.777Z,1.88
2023-01-02T22:30:20.926Z,1.60
2023-01-02T22:35:27.056Z,1.95
2023-01-02T22:40:29.173Z,2.92
2023-01-02T22:45:35.753Z,2.70
2023-01-02T22:50:43.378Z,2.03
2023-01-02T22:55:46.775Z,4.40
2023-01-02T23:00:56.627Z,1.95
2023-01-02T23:05:58.442Z,3.03
2023-01-02T23:11:00.207Z,4.45
2023-01-02T23:16:20.895Z,4.40
2023-01-02T23:21:23.431Z,5.15
2023-01-02T23:26:28.487Z,4.40
2023-01-02T23:31:30.271Z,3.20
2023-01-02T23:36:32.038Z,3.80
2023-01-02T23:41:34.537Z,4.70
2023-01-02T23:46:36.469Z,2.13
2023-01-02T23:51:39.399Z,1.77
2023-01-02T23:56:42.360Z,1.70
